Time;durP1;ratioP1;P1;durP2;ratioP2;P2;SDS_P1;SDS_P2;PMS_P1;PMS_P2;Temp;Humidity;BMP_temperature;BMP_pressure;BME280_temperature;BME280_humidity;BME280_pressure;Samples;Min_cycle;Max_cycle;Signal;HPM_P1;HPM_P2
2021/09/08 00:00:05;;;;;;;5.90;3.78;;;;;;;;;;5015730;28;20046;-39
2021/09/08 00:02:37;;;;;;;5.03;3.80;;;;;;;;;;5015551;28;20030;-39
2021/09/08 00:05:03;;;;;;;10.40;4.35;;;;;;;;;;5015338;28;20026;-39
2021/09/08 00:07:28;;;;;;;7.63;4.22;;;;;;;;;;5015675;28;20053;-39
2021/09/08 00:09:54;;;;;;;8.65;3.83;;;;;;;;;;5015376;28;20516;-39
2021/09/08 00:12:19;;;;;;;4.18;3.40;;;;;;;;;;5015448;28;20024;-39
2021/09/08 00:14:44;;;;;;;9.55;3.88;;;;;;;;;;5015499;28;20497;-40
2021/09/08 00:17:10;;;;;;;7.15;4.25;;;;;;;;;;5015155;28;20092;-39
2021/09/08 00:19:35;;;;;;;6.93;3.90;;;;;;;;;;5015365;28;20081;-39
2021/09/08 00:22:04;;;;;;;6.22;3.85;;;;;;;;;;5015414;28;20118;-39
2021/09/08 00:24:29;;;;;;;6.30;3.88;;;;;;;;;;5015096;28;20212;-39
2021/09/08 00:26:55;;;;;;;5.55;3.38;;;;;;;;;;5014302;28;20022;-39
2021/09/08 00:29:20;;;;;;;5.78;4.20;;;;;;;;;;5014993;28;20033;-39
2021/09/08 00:31:46;;;;;;;5.32;4.80;;;;;;;;;;5014963;28;20022;-39
2021/09/08 00:34:13;;;;;;;9.13;4.53;;;;;;;;;;5014757;28;20021;-39
2021/09/08 00:36:38;;;;;;;4.43;3.80;;;;;;;;;;5014840;28;20172;-40
2021/09/08 00:39:04;;;;;;;8.02;3.63;;;;;;;;;;5014882;28;20034;-39
2021/09/08 00:41:31;;;;;;;8.00;4.03;;;;;;;;;;5015033;28;20049;-39
2021/09/08 00:44:07;;;;;;;6.82;4.47;;;;;;;;;;5014663;28;20157;-39
2021/09/08 00:46:33;;;;;;;6.30;3.88;;;;;;;;;;5029865;28;20032;-39
2021/09/08 00:49:04;;;;;;;9.90;4.30;;;;;;;;;;5014593;28;20026;-39
2021/09/08 00:51:29;;;;;;;9.77;3.85;;;;;;;;;;5014603;28;20436;-39
2021/09/08 00:53:59;;;;;;;8.23;4.60;;;;;;;;;;5014440;28;20021;-39
2021/09/08 00:56:25;;;;;;;5.57;3.75;;;;;;;;;;5014487;28;20477;-39
2021/09/08 00:58:50;;;;;;;5.57;3.92;;;;;;;;;;5014382;28;20041;-39
2021/09/08 01:01:18;;;;;;;8.77;3.92;;;;;;;;;;5014289;28;20481;-39
2021/09/08 01:03:48;;;;;;;5.18;3.42;;;;;;;;;;5014650;28;20014;-39
2021/09/08 01:06:15;;;;;;;6.40;4.18;;;;;;;;;;5014524;28;20048;-40
2021/09/08 01:08:42;;;;;;;5.18;4.00;;;;;;;;;;5014418;28;20030;-39
2021/09/08 01:11:09;;;;;;;6.35;4.10;;;;;;;;;;5014151;28;20539;-39
2021/09/08 01:13:34;;;;;;;7.65;4.30;;;;;;;;;;5014371;28;20025;-39
2021/09/08 01:16:01;;;;;;;6.20;4.07;;;;;;;;;;5013934;28;20030;-39
2021/09/08 01:18:30;;;;;;;7.97;4.35;;;;;;;;;;5014184;28;20021;-39
2021/09/08 01:20:55;;;;;;;6.40;4.28;;;;;;;;;;5013907;28;20499;-39
2021/09/08 01:23:21;;;;;;;11.07;4.95;;;;;;;;;;5013881;28;20014;-44
2021/09/08 01:25:47;;;;;;;5.80;3.80;;;;;;;;;;5013899;28;20035;-39
2021/09/08 01:28:12;;;;;;;6.65;3.78;;;;;;;;;;5013848;28;20022;-39
2021/09/08 01:30:41;;;;;;;7.85;4.03;;;;;;;;;;5013891;28;20108;-39
2021/09/08 01:33:08;;;;;;;8.38;4.05;;;;;;;;;;5013727;28;20024;-39
2021/09/08 01:35:33;;;;;;;8.52;4.15;;;;;;;;;;5014034;28;20116;-40
2021/09/08 01:37:58;;;;;;;6.93;4.82;;;;;;;;;;5012657;28;20146;-39
2021/09/08 01:40:24;;;;;;;7.45;4.38;;;;;;;;;;5013531;28;20053;-40
2021/09/08 01:42:49;;;;;;;5.50;3.75;;;;;;;;;;5013690;28;20010;-39
2021/09/08 01:45:15;;;;;;;4.57;3.60;;;;;;;;;;5013244;28;20050;-39
2021/09/08 01:47:41;;;;;;;9.15;5.05;;;;;;;;;;5013829;28;20026;-40
2021/09/08 01:50:07;;;;;;;7.13;4.20;;;;;;;;;;5013404;28;20041;-39
2021/09/08 01:52:33;;;;;;;7.68;4.75;;;;;;;;;;5012191;28;20024;-39
2021/09/08 01:54:59;;;;;;;6.22;3.83;;;;;;;;;;5013417;28;20449;-39
2021/09/08 01:57:24;;;;;;;10.27;4.78;;;;;;;;;;5013676;28;20042;-39
2021/09/08 01:59:49;;;;;;;6.97;4.00;;;;;;;;;;5013304;28;20393;-39
2021/09/08 02:02:16;;;;;;;7.68;4.80;;;;;;;;;;5013284;28;20030;-39
2021/09/08 02:04:41;;;;;;;7.13;4.38;;;;;;;;;;5013443;28;20033;-39
2021/09/08 02:07:06;;;;;;;5.88;4.43;;;;;;;;;;5013149;28;20022;-39
2021/09/08 02:09:32;;;;;;;7.28;3.97;;;;;;;;;;5013131;28;20084;-39
2021/09/08 02:11:57;;;;;;;6.40;4.40;;;;;;;;;;5013151;28;20021;-39
2021/09/08 02:14:24;;;;;;;8.68;4.35;;;;;;;;;;5013117;28;20033;-39
2021/09/08 02:16:49;;;;;;;6.05;3.97;;;;;;;;;;5013004;28;20029;-39
2021/09/08 02:19:15;;;;;;;6.90;4.55;;;;;;;;;;5013149;28;20045;-39
2021/09/08 02:21:40;;;;;;;5.90;4.13;;;;;;;;;;5013004;28;20046;-39
2021/09/08 02:24:06;;;;;;;7.63;4.45;;;;;;;;;;5012866;28;20065;-39
2021/09/08 02:26:31;;;;;;;7.57;4.00;;;;;;;;;;5012937;28;20472;-39
2021/09/08 02:28:56;;;;;;;5.82;3.83;;;;;;;;;;5012837;28;20488;-39
2021/09/08 02:31:22;;;;;;;6.57;4.05;;;;;;;;;;5012862;28;20017;-39
2021/09/08 02:33:47;;;;;;;7.22;3.63;;;;;;;;;;5013038;28;20033;-39
2021/09/08 02:36:12;;;;;;;7.25;3.85;;;;;;;;;;5012878;28;20026;-39
2021/09/08 02:38:38;;;;;;;5.80;3.60;;;;;;;;;;5013076;28;20396;-39
2021/09/08 02:41:06;;;;;;;5.03;4.15;;;;;;;;;;5011230;28;20037;-44
2021/09/08 02:43:33;;;;;;;5.80;4.35;;;;;;;;;;5012533;28;20115;-39
2021/09/08 02:46:01;;;;;;;8.52;4.75;;;;;;;;;;5012623;28;20037;-39
2021/09/08 02:48:27;;;;;;;8.15;4.35;;;;;;;;;;5012834;28;20026;-39
2021/09/08 02:50:52;;;;;;;6.57;4.25;;;;;;;;;;5044268;28;20531;-39
2021/09/08 02:53:18;;;;;;;9.73;4.40;;;;;;;;;;5012787;28;20040;-39
2021/09/08 02:55:43;;;;;;;5.78;4.25;;;;;;;;;;5012511;28;20014;-39
2021/09/08 02:58:08;;;;;;;5.70;4.15;;;;;;;;;;5012454;28;20033;-39
2021/09/08 03:00:34;;;;;;;5.95;4.15;;;;;;;;;;5012329;28;20081;-39
2021/09/08 03:02:59;;;;;;;6.63;4.50;;;;;;;;;;5012356;28;20026;-39
2021/09/08 03:05:24;;;;;;;5.32;3.20;;;;;;;;;;5012732;28;20058;-39
2021/09/08 03:07:50;;;;;;;6.88;4.07;;;;;;;;;;5012705;28;20029;-39
2021/09/08 03:10:15;;;;;;;6.13;4.05;;;;;;;;;;5044431;28;20482;-40
2021/09/08 03:12:41;;;;;;;6.30;3.85;;;;;;;;;;5012650;28;20457;-39
2021/09/08 03:15:06;;;;;;;4.65;3.60;;;;;;;;;;5012337;28;20054;-39
2021/09/08 03:17:32;;;;;;;5.28;3.65;;;;;;;;;;5012618;28;20029;-39
2021/09/08 03:19:57;;;;;;;8.55;4.30;;;;;;;;;;5012532;28;20048;-40
2021/09/08 03:22:22;;;;;;;7.38;4.25;;;;;;;;;;5012595;28;20118;-40
2021/09/08 03:24:48;;;;;;;6.10;3.97;;;;;;;;;;5012206;28;20064;-39
2021/09/08 03:27:14;;;;;;;5.68;4.25;;;;;;;;;;5012531;28;20054;-39
2021/09/08 03:29:39;;;;;;;7.35;3.72;;;;;;;;;;5012261;28;20025;-40
2021/09/08 03:32:05;;;;;;;6.85;4.28;;;;;;;;;;5012131;28;20026;-39
2021/09/08 03:34:30;;;;;;;4.93;3.65;;;;;;;;;;5010911;28;20018;-40
2021/09/08 03:36:56;;;;;;;7.65;4.32;;;;;;;;;;5012038;28;20041;-39
2021/09/08 03:39:21;;;;;;;8.68;4.78;;;;;;;;;;5012069;28;20062;-39
2021/09/08 03:41:46;;;;;;;6.57;4.93;;;;;;;;;;5012231;28;20029;-39
2021/09/08 03:44:12;;;;;;;8.07;4.53;;;;;;;;;;5011740;28;20042;-39
2021/09/08 03:46:37;;;;;;;5.90;3.70;;;;;;;;;;5012155;28;20026;-39
2021/09/08 03:49:03;;;;;;;6.22;4.20;;;;;;;;;;5012038;28;20113;-39
2021/09/08 03:51:28;;;;;;;9.95;4.63;;;;;;;;;;5012300;28;20381;-39
2021/09/08 03:53:58;;;;;;;7.30;4.35;;;;;;;;;;5012281;28;20022;-39
2021/09/08 03:56:23;;;;;;;7.45;4.18;;;;;;;;;;5012197;28;20073;-39
2021/09/08 03:58:48;;;;;;;8.95;4.20;;;;;;;;;;5012047;28;20059;-39
2021/09/08 04:01:14;;;;;;;6.20;4.03;;;;;;;;;;5012114;28;20049;-39
2021/09/08 04:03:39;;;;;;;8.32;4.25;;;;;;;;;;5015700;28;20022;-39
2021/09/08 04:06:05;;;;;;;7.40;4.38;;;;;;;;;;5015402;28;20496;-39
2021/09/08 04:08:30;;;;;;;7.88;3.75;;;;;;;;;;5015427;28;20018;-41
2021/09/08 04:10:55;;;;;;;5.10;3.92;;;;;;;;;;5047261;28;20109;-39
2021/09/08 04:13:21;;;;;;;5.47;4.07;;;;;;;;;;5015246;28;20097;-39
2021/09/08 04:15:46;;;;;;;6.78;3.92;;;;;;;;;;5015506;28;20033;-40
2021/09/08 04:18:11;;;;;;;6.88;4.40;;;;;;;;;;5015223;28;20038;-40
2021/09/08 04:20:37;;;;;;;7.03;3.90;;;;;;;;;;5015090;28;20428;-39
2021/09/08 04:23:02;;;;;;;8.88;4.30;;;;;;;;;;5015077;28;20029;-39
2021/09/08 04:25:28;;;;;;;9.57;4.95;;;;;;;;;;5015109;28;20069;-39
2021/09/08 04:27:53;;;;;;;5.75;4.05;;;;;;;;;;5015001;28;20087;-39
2021/09/08 04:30:18;;;;;;;6.30;4.35;;;;;;;;;;5014994;28;20038;-40
2021/09/08 04:32:44;;;;;;;6.75;5.22;;;;;;;;;;5015333;28;20022;-39
2021/09/08 04:35:09;;;;;;;5.45;4.05;;;;;;;;;;5014949;28;20037;-39
2021/09/08 04:37:36;;;;;;;7.38;5.05;;;;;;;;;;5014915;28;20014;-40
2021/09/08 04:40:01;;;;;;;8.10;4.63;;;;;;;;;;5014952;28;20041;-40
2021/09/08 04:42:27;;;;;;;9.73;4.13;;;;;;;;;;5014786;28;20098;-40
2021/09/08 04:44:52;;;;;;;7.32;4.53;;;;;;;;;;5014638;28;20100;-39
2021/09/08 04:47:17;;;;;;;6.88;4.80;;;;;;;;;;5014607;28;20029;-39
2021/09/08 04:49:43;;;;;;;6.03;4.15;;;;;;;;;;5014908;28;20080;-40
2021/09/08 04:52:08;;;;;;;6.05;3.83;;;;;;;;;;5014491;28;20373;-40
2021/09/08 04:54:34;;;;;;;7.97;5.28;;;;;;;;;;5014801;28;20026;-40
2021/09/08 04:56:59;;;;;;;9.48;3.90;;;;;;;;;;5014777;28;20016;-40
2021/09/08 04:59:24;;;;;;;6.72;3.80;;;;;;;;;;5014356;28;20056;-40
2021/09/08 05:01:50;;;;;;;17.23;5.03;;;;;;;;;;5014760;28;20026;-40
2021/09/08 05:04:15;;;;;;;10.23;4.03;;;;;;;;;;5014316;28;20037;-39
2021/09/08 05:06:41;;;;;;;6.38;4.10;;;;;;;;;;5014559;28;20024;-40
2021/09/08 05:09:06;;;;;;;6.85;5.00;;;;;;;;;;5014242;28;20026;-39
2021/09/08 05:11:31;;;;;;;11.18;5.25;;;;;;;;;;5014413;28;20033;-39
2021/09/08 05:13:57;;;;;;;7.63;3.83;;;;;;;;;;5013929;28;20476;-40
2021/09/08 05:16:22;;;;;;;6.90;4.43;;;;;;;;;;5014140;28;20026;-39
2021/09/08 05:18:48;;;;;;;5.88;4.13;;;;;;;;;;5014325;28;20033;-40
2021/09/08 05:21:13;;;;;;;6.80;4.60;;;;;;;;;;5014204;28;20029;-41
2021/09/08 05:23:39;;;;;;;7.43;4.03;;;;;;;;;;5014190;28;20366;-40
2021/09/08 05:26:05;;;;;;;7.85;4.00;;;;;;;;;;5013924;28;20358;-40
2021/09/08 05:28:31;;;;;;;9.75;4.18;;;;;;;;;;5014221;28;20026;-40
2021/09/08 05:30:57;;;;;;;5.45;3.95;;;;;;;;;;5014146;28;20044;-40
2021/09/08 05:33:22;;;;;;;9.02;4.85;;;;;;;;;;5013717;28;20022;-40
2021/09/08 05:35:48;;;;;;;6.90;4.22;;;;;;;;;;5014089;28;20479;-39
2021/09/08 05:38:13;;;;;;;5.40;3.85;;;;;;;;;;5013536;28;20029;-40
2021/09/08 05:40:39;;;;;;;7.35;4.50;;;;;;;;;;5012380;28;20026;-40
2021/09/08 05:43:04;;;;;;;6.38;4.13;;;;;;;;;;5013707;28;20030;-39
2021/09/08 05:45:29;;;;;;;5.95;4.03;;;;;;;;;;5013542;28;20052;-39
2021/09/08 05:47:55;;;;;;;7.32;3.88;;;;;;;;;;5013659;28;20109;-39
2021/09/08 05:50:20;;;;;;;10.68;4.50;;;;;;;;;;5013416;28;20018;-39
2021/09/08 05:52:46;;;;;;;7.57;4.45;;;;;;;;;;5013447;28;20068;-39
2021/09/08 05:55:11;;;;;;;7.55;4.78;;;;;;;;;;5013333;28;20124;-41
2021/09/08 05:57:37;;;;;;;6.75;4.53;;;;;;;;;;5013725;28;20022;-39
2021/09/08 06:00:06;;;;;;;13.60;4.90;;;;;;;;;;5013245;28;20030;-39
2021/09/08 06:02:36;;;;;;;7.65;3.92;;;;;;;;;;5013274;28;20037;-38
2021/09/08 06:05:02;;;;;;;6.78;3.58;;;;;;;;;;5013471;28;20045;-39
2021/09/08 06:07:27;;;;;;;7.13;4.10;;;;;;;;;;5013245;28;20109;-39
2021/09/08 06:09:53;;;;;;;10.20;4.07;;;;;;;;;;5013301;28;20030;-39
2021/09/08 06:12:18;;;;;;;7.70;3.90;;;;;;;;;;5013123;28;20437;-39
2021/09/08 06:14:44;;;;;;;6.88;3.75;;;;;;;;;;5013058;28;20421;-39
2021/09/08 06:17:09;;;;;;;5.72;3.72;;;;;;;;;;5013513;28;20096;-39
2021/09/08 06:19:35;;;;;;;5.68;3.90;;;;;;;;;;5013034;28;20053;-39
2021/09/08 06:22:01;;;;;;;7.55;4.63;;;;;;;;;;5028160;28;20353;-39
2021/09/08 06:24:27;;;;;;;6.35;3.75;;;;;;;;;;5012660;28;20049;-39
2021/09/08 06:26:52;;;;;;;7.60;4.30;;;;;;;;;;5013010;28;20026;-39
2021/09/08 06:29:17;;;;;;;5.78;4.05;;;;;;;;;;5012751;28;20042;-39
2021/09/08 06:31:43;;;;;;;6.63;4.55;;;;;;;;;;5013004;28;20022;-39
2021/09/08 06:34:09;;;;;;;6.57;3.97;;;;;;;;;;5011336;28;20040;-39
2021/09/08 06:36:35;;;;;;;6.18;3.83;;;;;;;;;;5013071;28;20025;-39
2021/09/08 06:39:00;;;;;;;5.78;4.22;;;;;;;;;;5012830;28;20022;-39
2021/09/08 06:41:25;;;;;;;5.97;4.47;;;;;;;;;;5012999;28;20077;-40
2021/09/08 06:43:52;;;;;;;10.18;4.18;;;;;;;;;;5012542;28;20045;-39
2021/09/08 06:46:17;;;;;;;6.45;3.67;;;;;;;;;;5012595;28;20073;-40
2021/09/08 06:48:43;;;;;;;5.28;3.72;;;;;;;;;;5012668;28;20037;-40
2021/09/08 06:51:08;;;;;;;8.63;3.95;;;;;;;;;;5012524;28;20089;-39
2021/09/08 06:53:33;;;;;;;10.45;4.47;;;;;;;;;;5012920;28;20034;-39
2021/09/08 06:55:59;;;;;;;10.57;4.57;;;;;;;;;;5012717;28;20405;-39
2021/09/08 06:58:24;;;;;;;5.70;3.92;;;;;;;;;;5012710;28;20045;-39
2021/09/08 07:00:50;;;;;;;7.20;4.30;;;;;;;;;;5027622;28;20030;-39
2021/09/08 07:03:15;;;;;;;5.60;3.70;;;;;;;;;;5012439;28;20038;-39
2021/09/08 07:05:40;;;;;;;6.88;4.35;;;;;;;;;;5012437;28;20064;-39
2021/09/08 07:08:09;;;;;;;5.90;3.85;;;;;;;;;;5012756;28;20025;-39
2021/09/08 07:10:34;;;;;;;7.90;3.88;;;;;;;;;;5012694;28;20066;-39
2021/09/08 07:13:00;;;;;;;20.85;4.90;;;;;;;;;;5012381;28;20386;-39
2021/09/08 07:15:25;;;;;;;5.35;3.47;;;;;;;;;;5027589;28;20022;-39
2021/09/08 07:17:50;;;;;;;7.57;3.60;;;;;;;;;;5012576;28;20026;-39
2021/09/08 07:20:16;;;;;;;8.88;4.38;;;;;;;;;;5011969;28;20029;-39
2021/09/08 07:22:41;;;;;;;7.63;4.50;;;;;;;;;;5012251;28;20103;-39
2021/09/08 07:25:07;;;;;;;6.15;3.38;;;;;;;;;;5012113;28;20018;-39
2021/09/08 07:27:32;;;;;;;5.28;3.70;;;;;;;;;;5044150;28;20030;-40
2021/09/08 07:29:57;;;;;;;6.57;4.15;;;;;;;;;;5012546;28;20464;-39
2021/09/08 07:32:23;;;;;;;5.82;4.30;;;;;;;;;;5012088;28;20092;-39
2021/09/08 07:34:48;;;;;;;8.90;3.90;;;;;;;;;;5012179;28;20021;-39
2021/09/08 07:37:15;;;;;;;6.40;3.97;;;;;;;;;;5015485;28;20120;-39
2021/09/08 07:39:40;;;;;;;8.13;3.67;;;;;;;;;;5016221;28;20044;-39
2021/09/08 07:42:06;;;;;;;10.75;3.42;;;;;;;;;;5016119;28;20480;-39
2021/09/08 07:44:31;;;;;;;7.95;4.28;;;;;;;;;;5015681;28;20406;-39
2021/09/08 07:46:57;;;;;;;6.72;4.28;;;;;;;;;;5015920;28;20048;-39
2021/09/08 07:49:22;;;;;;;4.47;3.40;;;;;;;;;;5015898;28;20030;-39
2021/09/08 07:51:47;;;;;;;4.25;2.78;;;;;;;;;;5016162;28;20080;-39
2021/09/08 07:54:13;;;;;;;4.88;2.67;;;;;;;;;;5015771;28;20018;-39
2021/09/08 07:56:38;;;;;;;4.07;2.55;;;;;;;;;;5015967;28;20022;-39
2021/09/08 07:59:03;;;;;;;7.00;3.63;;;;;;;;;;5015869;28;20088;-39
2021/09/08 08:01:32;;;;;;;5.93;3.17;;;;;;;;;;5015435;28;20045;-38
2021/09/08 08:03:58;;;;;;;3.42;2.17;;;;;;;;;;5015541;28;20528;-38
2021/09/08 08:06:24;;;;;;;3.70;2.22;;;;;;;;;;5015402;28;20080;-39
2021/09/08 08:08:49;;;;;;;5.78;3.63;;;;;;;;;;5015672;28;20057;-39
2021/09/08 08:11:15;;;;;;;4.95;3.30;;;;;;;;;;5015410;28;20022;-38
2021/09/08 08:13:41;;;;;;;4.72;3.50;;;;;;;;;;5015573;28;20048;-39
2021/09/08 08:16:07;;;;;;;4.95;2.95;;;;;;;;;;5015230;28;20032;-39
2021/09/08 08:18:32;;;;;;;5.05;3.00;;;;;;;;;;5015316;28;20026;-40
2021/09/08 08:20:58;;;;;;;4.95;2.78;;;;;;;;;;5015111;28;20077;-39
2021/09/08 08:23:23;;;;;;;5.85;3.47;;;;;;;;;;5014950;28;20079;-39
2021/09/08 08:25:48;;;;;;;5.43;2.97;;;;;;;;;;5015105;28;20084;-39
2021/09/08 08:28:14;;;;;;;5.88;3.20;;;;;;;;;;5015038;28;20021;-38
2021/09/08 08:30:39;;;;;;;4.13;2.97;;;;;;;;;;5015305;28;20088;-39
2021/09/08 08:33:05;;;;;;;8.68;3.28;;;;;;;;;;5015159;28;20017;-39
2021/09/08 08:35:30;;;;;;;5.97;3.33;;;;;;;;;;5015287;28;20030;-38
2021/09/08 08:37:56;;;;;;;1.75;1.42;;;;;;;;;;5014898;28;20018;-38
2021/09/08 08:40:21;;;;;;;7.88;3.67;;;;;;;;;;5014744;28;20038;-38
2021/09/08 08:42:47;;;;;;;5.78;3.05;;;;;;;;;;5015200;28;20029;-39
2021/09/08 08:45:13;;;;;;;4.32;3.22;;;;;;;;;;5014478;28;20498;-39
2021/09/08 08:47:39;;;;;;;6.30;3.38;;;;;;;;;;5014521;28;20045;-39
2021/09/08 08:50:05;;;;;;;6.15;3.28;;;;;;;;;;5014873;28;20388;-38
2021/09/08 08:52:30;;;;;;;5.50;3.17;;;;;;;;;;5014897;28;20101;-38
2021/09/08 08:54:56;;;;;;;6.25;3.38;;;;;;;;;;5014940;28;20072;-38
2021/09/08 08:57:21;;;;;;;5.15;3.65;;;;;;;;;;5014441;28;20035;-38
2021/09/08 08:59:49;;;;;;;3.60;2.80;;;;;;;;;;5014724;28;20091;-39
2021/09/08 09:02:27;;;;;;;8.25;3.25;;;;;;;;;;5014451;28;20021;-38
2021/09/08 09:04:54;;;;;;;4.03;2.70;;;;;;;;;;5014300;28;20473;-38
2021/09/08 09:07:21;;;;;;;7.43;3.35;;;;;;;;;;5014292;28;20106;-39
2021/09/08 09:09:50;;;;;;;4.38;2.95;;;;;;;;;;5014590;28;20025;-39
2021/09/08 09:12:16;;;;;;;3.00;1.48;;;;;;;;;;5014176;28;20041;-38
2021/09/08 09:14:41;;;;;;;6.40;3.03;;;;;;;;;;5046016;28;20022;-39
2021/09/08 09:17:11;;;;;;;4.60;3.05;;;;;;;;;;5014196;28;20074;-38
2021/09/08 09:19:44;;;;;;;4.60;2.67;;;;;;;;;;5014025;28;20436;-39
2021/09/08 09:22:10;;;;;;;4.18;3.08;;;;;;;;;;5014028;28;20133;-39
2021/09/08 09:24:39;;;;;;;3.97;2.47;;;;;;;;;;5013951;28;20465;-38
2021/09/08 09:27:09;;;;;;;4.63;2.85;;;;;;;;;;5013909;28;20112;-39
2021/09/08 09:29:34;;;;;;;4.95;3.05;;;;;;;;;;5014287;28;20014;-39
2021/09/08 09:32:04;;;;;;;7.82;3.03;;;;;;;;;;5014211;28;20450;-39
2021/09/08 09:34:30;;;;;;;5.82;3.60;;;;;;;;;;5013761;28;20021;-39
2021/09/08 09:36:57;;;;;;;5.90;3.47;;;;;;;;;;5013761;28;20034;-39
2021/09/08 09:39:23;;;;;;;4.78;3.38;;;;;;;;;;5013684;28;20028;-39
2021/09/08 09:41:48;;;;;;;4.63;2.25;;;;;;;;;;5013995;28;20037;-39
2021/09/08 09:44:14;;;;;;;3.38;2.42;;;;;;;;;;5013500;28;20049;-38
2021/09/08 09:46:40;;;;;;;6.88;3.50;;;;;;;;;;5013654;28;20049;-38
2021/09/08 09:49:06;;;;;;;7.03;3.00;;;;;;;;;;5013680;28;20018;-38
2021/09/08 09:51:31;;;;;;;8.00;3.20;;;;;;;;;;5013570;28;20057;-38
2021/09/08 09:53:57;;;;;;;9.45;4.07;;;;;;;;;;5013771;28;20029;-38
2021/09/08 09:56:23;;;;;;;4.65;3.20;;;;;;;;;;5013273;28;20041;-38
2021/09/08 09:58:48;;;;;;;5.60;3.20;;;;;;;;;;5013176;28;20029;-38
2021/09/08 10:01:13;;;;;;;9.65;3.50;;;;;;;;;;5012953;28;20469;-38
2021/09/08 10:03:39;;;;;;;4.97;3.60;;;;;;;;;;5013220;28;20026;-38
2021/09/08 10:06:04;;;;;;;6.35;3.00;;;;;;;;;;5013326;28;20100;-38
2021/09/08 10:08:32;;;;;;;3.65;3.15;;;;;;;;;;5013520;28;20097;-38
2021/09/08 10:11:00;;;;;;;9.77;2.90;;;;;;;;;;5013548;28;20030;-39
2021/09/08 10:13:35;;;;;;;4.25;3.05;;;;;;;;;;5013121;28;20010;-38
2021/09/08 10:16:00;;;;;;;4.25;3.15;;;;;;;;;;5013437;28;20109;-38
2021/09/08 10:18:27;;;;;;;4.28;1.95;;;;;;;;;;5013130;28;20496;-39
2021/09/08 10:20:59;;;;;;;3.92;3.38;;;;;;;;;;5012941;28;20037;-38
2021/09/08 10:23:24;;;;;;;5.85;3.60;;;;;;;;;;5012818;28;20034;-39
2021/09/08 10:25:51;;;;;;;4.95;3.38;;;;;;;;;;5012887;28;20071;-39
2021/09/08 10:28:17;;;;;;;7.10;3.15;;;;;;;;;;5012964;28;20071;-38
2021/09/08 10:30:43;;;;;;;5.20;2.38;;;;;;;;;;5012972;28;20022;-38
2021/09/08 10:33:09;;;;;;;6.80;2.47;;;;;;;;;;5013005;28;20469;-38
2021/09/08 10:35:38;;;;;;;5.72;3.35;;;;;;;;;;5011588;28;20030;-39
2021/09/08 10:38:08;;;;;;;5.55;3.28;;;;;;;;;;5012795;28;20033;-38
2021/09/08 10:40:34;;;;;;;5.43;3.20;;;;;;;;;;5012708;28;20038;-39
2021/09/08 10:43:01;;;;;;;5.68;3.33;;;;;;;;;;5012986;28;20018;-38
2021/09/08 10:45:27;;;;;;;6.40;2.90;;;;;;;;;;5012494;28;20050;-38
2021/09/08 10:47:53;;;;;;;9.18;3.80;;;;;;;;;;5012767;28;20025;-38
2021/09/08 10:50:34;;;;;;;6.45;3.25;;;;;;;;;;5012527;28;20465;-39
2021/09/08 10:53:01;;;;;;;5.03;3.25;;;;;;;;;;5012485;28;20495;-39
2021/09/08 10:55:26;;;;;;;4.50;2.78;;;;;;;;;;5012496;28;20021;-38
2021/09/08 10:57:52;;;;;;;3.50;2.90;;;;;;;;;;5012680;28;20026;-38
2021/09/08 11:00:28;;;;;;;6.65;3.00;;;;;;;;;;5012624;28;20030;-38
2021/09/08 11:02:54;;;;;;;5.13;2.38;;;;;;;;;;5012530;28;20033;-38
2021/09/08 11:05:19;;;;;;;3.92;2.45;;;;;;;;;;5012706;28;20026;-38
2021/09/08 11:07:45;;;;;;;7.07;3.75;;;;;;;;;;5012493;28;20429;-38
2021/09/08 11:10:12;;;;;;;5.95;2.90;;;;;;;;;;5012941;28;20018;-39
2021/09/08 11:12:48;;;;;;;5.07;2.60;;;;;;;;;;5016379;28;20033;-38
2021/09/08 11:15:14;;;;;;;4.68;2.30;;;;;;;;;;5016739;28;20040;-38
2021/09/08 11:17:39;;;;;;;5.50;2.88;;;;;;;;;;5016405;28;20014;-38
2021/09/08 11:20:05;;;;;;;6.25;2.65;;;;;;;;;;5016476;28;20038;-38
2021/09/08 11:22:31;;;;;;;4.53;2.38;;;;;;;;;;5016591;28;20156;-38
2021/09/08 11:25:04;;;;;;;3.70;2.28;;;;;;;;;;5016182;28;20033;-39
2021/09/08 11:27:29;;;;;;;;;;;;;;;;;;5016599;28;20038;-39
2021/09/08 11:30:08;;;;;;;4.07;2.65;;;;;;;;;;5016158;28;19905;-39
2021/09/08 11:32:49;;;;;;;4.43;2.85;;;;;;;;;;5016219;28;20041;-39
2021/09/08 11:35:15;;;;;;;3.35;2.65;;;;;;;;;;5015988;28;20479;-39
2021/09/08 11:37:44;;;;;;;6.13;2.83;;;;;;;;;;5016066;28;20028;-38
2021/09/08 11:40:09;;;;;;;10.02;2.97;;;;;;;;;;5015898;28;20033;-39
2021/09/08 11:42:44;;;;;;;5.70;2.55;;;;;;;;;;5015870;28;20021;-38
2021/09/08 11:45:09;;;;;;;6.97;2.83;;;;;;;;;;5014391;28;20185;-38
2021/09/08 11:47:34;;;;;;;5.15;2.70;;;;;;;;;;5015830;28;20117;-38
2021/09/08 11:50:00;;;;;;;5.15;3.03;;;;;;;;;;5016082;28;20109;-39
2021/09/08 11:52:26;;;;;;;3.70;2.90;;;;;;;;;;5015652;28;20156;-39
2021/09/08 11:54:51;;;;;;;3.88;2.67;;;;;;;;;;5016008;28;20030;-39
2021/09/08 11:57:24;;;;;;;6.25;2.70;;;;;;;;;;5015838;28;20109;-39
2021/09/08 11:59:51;;;;;;;8.55;2.38;;;;;;;;;;5015870;28;20127;-39
2021/09/08 12:02:16;;;;;;;4.60;2.60;;;;;;;;;;5015531;28;20551;-39
2021/09/08 12:04:42;;;;;;;5.70;4.35;;;;;;;;;;5015730;28;20173;-39
2021/09/08 12:07:07;;;;;;;5.07;2.95;;;;;;;;;;5015580;28;20457;-39
2021/09/08 12:09:40;;;;;;;4.97;2.47;;;;;;;;;;5015409;28;20105;-39
2021/09/08 12:12:09;;;;;;;4.80;2.92;;;;;;;;;;5015688;28;20041;-39
2021/09/08 12:14:34;;;;;;;3.65;2.60;;;;;;;;;;5015321;28;20057;-39
2021/09/08 12:17:09;;;;;;;6.13;2.85;;;;;;;;;;5015593;28;20062;-38
2021/09/08 12:19:34;;;;;;;3.97;2.67;;;;;;;;;;5015158;28;20087;-38
2021/09/08 12:22:20;;;;;;;4.80;2.75;;;;;;;;;;5014595;28;20022;-39
2021/09/08 12:24:49;;;;;;;2.78;2.45;;;;;;;;;;5015328;28;20030;-38
2021/09/08 12:27:33;;;;;;;3.75;2.50;;;;;;;;;;5015404;28;20117;-39
2021/09/08 12:30:04;;;;;;;10.00;2.88;;;;;;;;;;5015360;28;20112;-39
2021/09/08 12:32:45;;;;;;;3.28;2.47;;;;;;;;;;5015236;28;20026;-39
2021/09/08 12:35:11;;;;;;;3.50;2.28;;;;;;;;;;5015198;28;20034;-39
2021/09/08 12:37:36;;;;;;;5.97;3.10;;;;;;;;;;5030257;28;20025;-38
2021/09/08 12:40:11;;;;;;;3.90;3.13;;;;;;;;;;5014828;28;20123;-38
2021/09/08 12:42:40;;;;;;;3.85;2.55;;;;;;;;;;5046769;28;20128;-39
2021/09/08 12:45:06;;;;;;;5.47;3.15;;;;;;;;;;5014661;28;20049;-39
2021/09/08 12:47:32;;;;;;;7.45;3.08;;;;;;;;;;5014779;28;20416;-38
2021/09/08 12:49:57;;;;;;;3.78;2.70;;;;;;;;;;5014862;28;20018;-39
2021/09/08 12:52:23;;;;;;;9.00;2.88;;;;;;;;;;5014783;28;20459;-39
2021/09/08 12:54:49;;;;;;;5.43;3.03;;;;;;;;;;5046546;28;20013;-39
2021/09/08 12:57:15;;;;;;;5.43;2.88;;;;;;;;;;5014557;28;20049;-38
2021/09/08 12:59:41;;;;;;;3.85;2.67;;;;;;;;;;5014404;28;20380;-39
2021/09/08 13:02:07;;;;;;;6.00;3.15;;;;;;;;;;5014597;28;20037;-38
2021/09/08 13:04:33;;;;;;;3.42;2.80;;;;;;;;;;5014408;28;20028;-39
2021/09/08 13:06:59;;;;;;;9.43;3.00;;;;;;;;;;5014698;28;20026;-39
2021/09/08 13:09:25;;;;;;;5.57;2.78;;;;;;;;;;5014072;28;20025;-39
2021/09/08 13:11:51;;;;;;;4.22;2.95;;;;;;;;;;5014265;28;20116;-39
2021/09/08 13:14:17;;;;;;;5.95;3.17;;;;;;;;;;5014230;28;20049;-39
2021/09/08 13:16:43;;;;;;;5.22;2.83;;;;;;;;;;5014516;28;20022;-39
2021/09/08 13:19:09;;;;;;;9.00;2.95;;;;;;;;;;5014114;28;20431;-39
2021/09/08 13:21:35;;;;;;;3.15;2.75;;;;;;;;;;5014035;28;20066;-39
2021/09/08 13:24:01;;;;;;;12.82;3.17;;;;;;;;;;5045538;28;20029;-38
2021/09/08 13:26:26;;;;;;;5.35;3.58;;;;;;;;;;5014064;28;20030;-40
2021/09/08 13:28:52;;;;;;;5.38;3.65;;;;;;;;;;5012604;28;20021;-39
2021/09/08 13:31:17;;;;;;;5.32;4.03;;;;;;;;;;5014190;28;20065;-39
2021/09/08 13:33:43;;;;;;;5.13;3.22;;;;;;;;;;5013795;28;20461;-38
2021/09/08 13:36:09;;;;;;;5.68;3.75;;;;;;;;;;5013691;28;20091;-39
2021/09/08 13:38:34;;;;;;;11.90;2.95;;;;;;;;;;5013932;28;20120;-38
2021/09/08 13:40:59;;;;;;;4.82;3.17;;;;;;;;;;5013924;28;20046;-39
2021/09/08 13:43:25;;;;;;;4.43;3.35;;;;;;;;;;5013609;28;20402;-39
2021/09/08 13:45:51;;;;;;;5.40;3.58;;;;;;;;;;5013768;28;20030;-38
2021/09/08 13:48:16;;;;;;;4.18;3.30;;;;;;;;;;5013588;28;20032;-38
2021/09/08 13:50:44;;;;;;;6.72;3.28;;;;;;;;;;5013817;28;20118;-39
2021/09/08 13:53:09;;;;;;;6.50;3.20;;;;;;;;;;5013424;28;20026;-39
2021/09/08 13:55:35;;;;;;;4.82;3.40;;;;;;;;;;5013519;28;20121;-39
2021/09/08 13:58:02;;;;;;;3.88;2.95;;;;;;;;;;5013521;28;20018;-39
2021/09/08 14:00:27;;;;;;;5.30;2.65;;;;;;;;;;5013253;28;20064;-39
2021/09/08 14:02:53;;;;;;;9.48;3.30;;;;;;;;;;5013604;28;20457;-39
2021/09/08 14:05:18;;;;;;;4.45;2.88;;;;;;;;;;5013268;28;20389;-39
2021/09/08 14:07:44;;;;;;;5.25;3.33;;;;;;;;;;5013325;28;20026;-39
2021/09/08 14:10:09;;;;;;;6.43;3.00;;;;;;;;;;5013211;28;20041;-39
2021/09/08 14:12:35;;;;;;;4.65;3.08;;;;;;;;;;5013118;28;20022;-39
2021/09/08 14:15:00;;;;;;;5.88;3.13;;;;;;;;;;5013222;28;20025;-39
2021/09/08 14:17:26;;;;;;;9.60;3.88;;;;;;;;;;5013064;28;20024;-39
2021/09/08 14:19:52;;;;;;;4.93;2.95;;;;;;;;;;5013259;28;20380;-39
2021/09/08 14:22:17;;;;;;;4.88;2.92;;;;;;;;;;5013096;28;20022;-39
2021/09/08 14:24:43;;;;;;;4.03;2.40;;;;;;;;;;5013204;28;20030;-39
2021/09/08 14:27:08;;;;;;;4.88;2.80;;;;;;;;;;5013014;28;20049;-39
2021/09/08 14:29:34;;;;;;;5.32;2.70;;;;;;;;;;5013319;28;20050;-40
2021/09/08 14:32:01;;;;;;;4.50;2.65;;;;;;;;;;5013222;28;20021;-39
2021/09/08 14:34:27;;;;;;;3.55;2.60;;;;;;;;;;5013048;28;20030;-39
2021/09/08 14:36:52;;;;;;;4.60;3.17;;;;;;;;;;5012893;28;20065;-39